Time;durP1;ratioP1;P1;durP2;ratioP2;P2;SDS_P1;SDS_P2;PMS_P1;PMS_P2;Temp;Humidity;BMP_temperature;BMP_pressure;BME280_temperature;BME280_humidity;BME280_pressure;Samples;Min_cycle;Max_cycle;Signal;HPM_P1;HPM_P2
2021/12/17 00:01:09;;;;;;;39.70;32.30;;;8.00;99.90;;;;;;5002670;28;20190;-88
2021/12/17 00:03:47;;;;;;;43.33;33.93;;;7.90;99.90;;;;;;5002881;28;20182;-84
2021/12/17 00:06:40;;;;;;;40.13;33.87;;;8.00;99.90;;;;;;5019000;28;20174;-85
2021/12/17 00:09:07;;;;;;;39.90;33.17;;;8.10;99.90;;;;;;5019106;28;20162;-84
2021/12/17 00:11:33;;;;;;;38.97;30.80;;;8.10;99.90;;;;;;5033945;28;20163;-90
2021/12/17 00:13:58;;;;;;;40.50;32.63;;;8.00;99.90;;;;;;5032301;28;20182;-86
2021/12/17 00:16:28;;;;;;;39.80;32.60;;;7.90;99.90;;;;;;5015803;28;20210;-86
2021/12/17 00:19:16;;;;;;;38.80;32.10;;;7.90;99.90;;;;;;4996321;28;20552;-85
2021/12/17 00:48:57;;;;;;;37.27;31.73;;;7.80;99.90;;;;;;5015328;28;20197;-83
2021/12/17 00:54:07;;;;;;;37.20;31.83;;;7.60;99.90;;;;;;5016471;28;20158;-82
2021/12/17 00:56:32;;;;;;;40.57;33.07;;;7.60;99.90;;;;;;5037038;28;20181;-85
2021/12/17 00:59:00;;;;;;;39.17;32.50;;;7.60;99.90;;;;;;5037800;28;20167;-85
2021/12/17 01:01:59;;;;;;;37.53;32.27;;;7.80;99.90;;;;;;5038316;28;20163;-84
2021/12/17 01:08:04;;;;;;;34.40;30.23;;;7.80;99.90;;;;;;5018600;28;20201;-85
2021/12/17 01:10:40;;;;;;;36.00;31.90;;;7.80;99.90;;;;;;5027501;28;20221;-84
2021/12/17 01:13:12;;;;;;;36.17;30.73;;;7.90;99.90;;;;;;5023606;28;20217;-84
2021/12/17 01:15:42;;;;;;;39.27;32.17;;;7.80;99.90;;;;;;5010323;28;20147;-84
2021/12/17 01:18:16;;;;;;;37.43;30.97;;;7.90;99.90;;;;;;5034271;28;20151;-83
2021/12/17 01:36:44;;;;;;;35.67;31.77;;;8.20;99.90;;;;;;5018163;28;20638;-83
2021/12/17 01:40:34;;;;;;;42.87;34.00;;;8.10;99.90;;;;;;5007237;28;20175;-85
2021/12/17 01:42:17;;;;;;;39.53;32.67;;;8.10;99.90;;;;;;5013373;28;20178;-83
2021/12/17 01:44:46;;;;;;;41.47;33.87;;;7.90;99.90;;;;;;5027623;28;20171;-85
2021/12/17 01:47:15;;;;;;;40.63;33.97;;;8.00;99.90;;;;;;5018343;28;20241;-86
2021/12/17 02:00:35;;;;;;;42.10;33.50;;;7.60;99.90;;;;;;5020757;28;20182;-82
2021/12/17 02:03:01;;;;;;;41.13;32.80;;;7.40;99.90;;;;;;5035965;28;20222;-83
2021/12/17 02:05:27;;;;;;;34.27;30.27;;;7.40;99.90;;;;;;5030786;28;20179;-86
2021/12/17 02:07:56;;;;;;;34.60;30.87;;;7.10;99.90;;;;;;5007172;28;20177;-86
2021/12/17 02:19:48;;;;;;;32.47;29.03;;;7.30;99.90;;;;;;5017791;28;20186;-82
2021/12/17 02:32:52;;;;;;;32.23;28.47;;;7.40;99.90;;;;;;5004136;28;20202;-85
2021/12/17 02:35:51;;;;;;;32.00;28.17;;;7.50;99.90;;;;;;5036749;28;20170;-82
2021/12/17 02:38:13;;;;;;;30.97;27.70;;;7.50;99.90;;;;;;5016622;28;20187;-83
2021/12/17 02:46:15;;;;;;;28.07;25.03;;;7.20;99.90;;;;;;5006745;28;20190;-83
2021/12/17 02:48:41;;;;;;;28.70;25.63;;;7.30;99.90;;;;;;5019750;28;20183;-84
2021/12/17 02:51:07;;;;;;;28.60;25.63;;;7.40;99.90;;;;;;4997223;28;20293;-92
2021/12/17 02:53:33;;;;;;;30.87;26.57;;;7.30;99.90;;;;;;5020672;28;20193;-84
2021/12/17 02:56:03;;;;;;;28.53;25.53;;;7.30;99.90;;;;;;5020542;28;20183;-84
2021/12/17 02:58:32;;;;;;;27.20;24.30;;;7.30;99.90;;;;;;5031307;28;20275;-83
2021/12/17 03:00:59;;;;;;;29.03;25.70;;;7.40;99.90;;;;;;5012142;28;20179;-85
2021/12/17 03:03:31;;;;;;;28.67;25.17;;;7.40;99.90;;;;;;5018343;28;20178;-83
2021/12/17 03:06:32;;;;;;;29.20;26.10;;;7.40;99.90;;;;;;5031941;28;20159;-84
2021/12/17 03:09:48;;;;;;;27.47;24.23;;;7.50;99.90;;;;;;5000110;28;20167;-89
2021/12/17 03:12:24;;;;;;;25.70;22.67;;;7.50;99.90;;;;;;5018446;28;20195;-87
2021/12/17 03:15:02;;;;;;;27.67;24.00;;;7.50;99.90;;;;;;5015367;28;20183;-89
2021/12/17 03:26:17;;;;;;;30.70;26.60;;;7.60;99.90;;;;;;5015627;28;20174;-84
2021/12/17 03:29:13;;;;;;;31.63;27.73;;;7.60;99.90;;;;;;4992702;28;20302;-85
2021/12/17 03:31:52;;;;;;;44.57;32.27;;;7.60;99.90;;;;;;5013113;28;20183;-85
2021/12/17 03:34:19;;;;;;;53.30;33.27;;;7.50;99.90;;;;;;5012574;28;20682;-90
2021/12/17 03:36:48;;;;;;;50.20;33.73;;;7.40;99.90;;;;;;4997688;28;20688;-85
2021/12/17 03:39:15;;;;;;;75.03;33.53;;;7.40;99.90;;;;;;5012163;28;20197;-87
2021/12/17 03:41:47;;;;;;;77.03;32.67;;;7.40;99.90;;;;;;4996953;28;20185;-84
2021/12/17 03:44:13;;;;;;;90.00;32.63;;;7.50;99.90;;;;;;5013707;28;20174;-83
2021/12/17 03:46:40;;;;;;;134.70;29.27;;;7.30;99.90;;;;;;5015652;28;20175;-85
2021/12/17 03:49:07;;;;;;;114.17;30.93;;;7.20;99.90;;;;;;5019067;28;20194;-86
2021/12/17 03:51:46;;;;;;;157.10;34.83;;;7.30;99.90;;;;;;5034897;28;20179;-86
2021/12/17 03:54:12;;;;;;;206.30;35.60;;;7.00;99.90;;;;;;5034908;28;20207;-83
2021/12/17 03:56:38;;;;;;;95.03;30.37;;;7.30;99.90;;;;;;5034218;28;20165;-84
2021/12/17 03:59:10;;;;;;;132.03;33.17;;;7.00;99.90;;;;;;5031383;28;20198;-86
2021/12/17 04:01:51;;;;;;;244.00;35.10;;;6.90;99.90;;;;;;5012062;28;20191;-85
2021/12/17 04:04:27;;;;;;;129.97;33.53;;;6.80;99.90;;;;;;5011092;28;20640;-86
2021/12/17 04:06:53;;;;;;;162.23;33.87;;;6.80;99.90;;;;;;5012060;28;20178;-86
2021/12/17 04:09:21;;;;;;;126.50;35.17;;;6.70;99.90;;;;;;5011956;28;20217;-89
2021/12/17 04:11:48;;;;;;;196.20;39.43;;;6.60;99.90;;;;;;5013967;28;20210;-89
2021/12/17 04:14:19;;;;;;;197.20;38.00;;;6.70;99.90;;;;;;5011612;28;20659;-89
2021/12/17 04:16:46;;;;;;;118.67;35.63;;;6.70;99.90;;;;;;5005843;28;20193;-87
2021/12/17 04:19:13;;;;;;;160.40;39.00;;;6.70;99.90;;;;;;5022246;28;20175;-85
2021/12/17 04:21:38;;;;;;;150.20;38.30;;;6.60;99.90;;;;;;5001527;28;20175;-86
2021/12/17 04:24:07;;;;;;;256.83;41.07;;;6.50;99.90;;;;;;5016054;28;20570;-90
2021/12/17 04:26:33;;;;;;;210.87;40.13;;;6.60;99.90;;;;;;5014072;28;20171;-91
2021/12/17 04:29:00;;;;;;;124.07;34.63;;;6.70;99.90;;;;;;4995694;28;20659;-90
2021/12/17 04:31:28;;;;;;;152.53;37.90;;;6.70;99.90;;;;;;5019026;28;20198;-85
2021/12/17 04:33:54;;;;;;;327.00;48.57;;;6.60;99.90;;;;;;5031820;28;20178;-85
2021/12/17 04:36:30;;;;;;;202.73;39.27;;;6.60;99.90;;;;;;5002958;28;20647;-89
2021/12/17 04:38:58;;;;;;;176.90;36.93;;;6.70;99.90;;;;;;5012999;28;20182;-84
2021/12/17 04:41:42;;;;;;;158.27;36.53;;;6.80;99.90;;;;;;4997024;28;20572;-89
2021/12/17 04:57:53;;;;;;;154.07;36.17;;;6.40;99.90;;;;;;4997151;28;20202;-84
2021/12/17 05:00:23;;;;;;;123.03;33.80;;;6.20;99.90;;;;;;5022068;28;20190;-85
2021/12/17 05:02:53;;;;;;;116.10;32.23;;;6.10;99.90;;;;;;5033601;28;20163;-85
2021/12/17 05:05:21;;;;;;;268.80;41.93;;;6.00;99.90;;;;;;5028645;28;20237;-85
2021/12/17 05:07:56;;;;;;;187.63;36.47;;;5.90;99.90;;;;;;5021652;28;20175;-88
2021/12/17 05:21:17;;;;;;;210.63;37.23;;;5.90;99.90;;;;;;5018074;28;20203;-85
2021/12/17 05:23:46;;;;;;;463.60;56.57;;;5.70;99.90;;;;;;5027793;28;20183;-84
2021/12/17 05:26:22;;;;;;;120.77;33.77;;;5.70;99.90;;;;;;5020823;28;20236;-86
2021/12/17 05:29:11;;;;;;;263.03;41.17;;;5.80;99.90;;;;;;4995129;28;20217;-89
2021/12/17 05:31:37;;;;;;;159.17;36.10;;;5.80;99.90;;;;;;4996464;28;20294;-86
2021/12/17 05:34:03;;;;;;;100.90;33.37;;;5.80;99.90;;;;;;5015992;28;20171;-86
2021/12/17 05:36:29;;;;;;;238.33;41.27;;;5.60;99.90;;;;;;5014063;28;20178;-88
2021/12/17 05:38:54;;;;;;;87.63;29.97;;;5.80;99.90;;;;;;5012667;28;20182;-86
2021/12/17 05:41:20;;;;;;;245.77;41.27;;;5.60;99.90;;;;;;4996327;28;20321;-84
2021/12/17 05:43:54;;;;;;;119.53;36.00;;;5.60;99.90;;;;;;4997677;28;20261;-87
2021/12/17 05:46:24;;;;;;;159.90;38.53;;;5.60;99.90;;;;;;5030243;28;20178;-86
2021/12/17 05:48:50;;;;;;;109.27;36.07;;;5.60;99.90;;;;;;5031737;28;20395;-83
2021/12/17 05:51:15;;;;;;;108.63;37.73;;;5.70;99.90;;;;;;5029971;28;20218;-83
2021/12/17 05:53:44;;;;;;;158.53;46.07;;;5.50;99.90;;;;;;5017345;28;20182;-84
2021/12/17 05:56:17;;;;;;;241.20;50.00;;;5.30;99.90;;;;;;5018404;28;20199;-86
2021/12/17 05:58:48;;;;;;;182.07;47.10;;;5.30;99.90;;;;;;5031146;28;20187;-86
2021/12/17 06:01:16;;;;;;;253.87;44.37;;;5.20;99.90;;;;;;5020764;28;20233;-85
2021/12/17 06:03:43;;;;;;;185.33;45.37;;;5.20;99.90;;;;;;5033893;28;20171;-84
2021/12/17 06:06:10;;;;;;;366.23;56.17;;;5.20;99.90;;;;;;5032082;28;20175;-85
2021/12/17 06:08:38;;;;;;;402.50;55.60;;;5.20;99.90;;;;;;5018790;28;20167;-85
2021/12/17 06:11:14;;;;;;;309.37;50.57;;;5.20;99.90;;;;;;4999531;28;20238;-86
2021/12/17 06:13:42;;;;;;;167.70;42.33;;;5.30;99.90;;;;;;5014602;28;20175;-85
2021/12/17 06:16:09;;;;;;;223.60;46.00;;;5.20;99.90;;;;;;5036561;28;20223;-85
2021/12/17 06:18:34;;;;;;;192.30;43.27;;;5.10;99.90;;;;;;5034154;28;20159;-85
2021/12/17 06:21:03;;;;;;;172.67;41.53;;;5.20;99.90;;;;;;5028525;28;20175;-88
2021/12/17 06:23:45;;;;;;;136.87;38.77;;;5.20;99.90;;;;;;5015506;28;20175;-88
2021/12/17 06:26:11;;;;;;;232.80;44.40;;;5.10;99.90;;;;;;5014767;28;20175;-89
2021/12/17 06:28:37;;;;;;;371.27;53.97;;;5.20;99.90;;;;;;5014116;28;20293;-86
2021/12/17 06:31:03;;;;;;;221.27;44.43;;;5.20;99.90;;;;;;5014744;28;20206;-86
2021/12/17 06:33:28;;;;;;;361.93;53.60;;;5.20;99.90;;;;;;5019207;28;20167;-85
2021/12/17 06:35:56;;;;;;;282.37;48.13;;;5.20;99.90;;;;;;5035674;28;20234;-91
2021/12/17 06:38:24;;;;;;;216.87;47.27;;;5.30;99.90;;;;;;5036082;28;20167;-87
2021/12/17 06:40:53;;;;;;;190.33;43.37;;;5.30;99.90;;;;;;5036369;28;20235;-86
2021/12/17 06:44:27;;;;;;;241.67;47.80;;;5.30;99.90;;;;;;5035739;28;20163;-85
2021/12/17 07:06:57;;;;;;;190.67;45.40;;;5.10;99.90;;;;;;5016722;28;20181;-88
2021/12/17 07:18:04;;;;;;;133.87;42.30;;;5.40;99.90;;;;;;4999014;28;20225;-89
2021/12/17 07:23:22;;;;;;;164.87;46.17;;;5.50;99.90;;;;;;5009799;28;20450;-88
2021/12/17 07:39:38;;;;;;;328.13;55.17;;;5.60;99.90;;;;;;4997356;28;20255;-86
2021/12/17 07:42:04;;;;;;;315.03;54.43;;;5.70;99.90;;;;;;4996668;28;20207;-89
2021/12/17 07:44:30;;;;;;;301.40;52.43;;;5.70;99.90;;;;;;4997856;28;20163;-86
2021/12/17 07:46:56;;;;;;;256.13;50.50;;;5.70;99.90;;;;;;5013614;28;20179;-89
2021/12/17 07:49:22;;;;;;;220.60;45.23;;;5.90;99.90;;;;;;5025454;28;20159;-89
2021/12/17 07:51:49;;;;;;;249.60;47.10;;;5.70;99.90;;;;;;5034239;28;20163;-89
2021/12/17 07:54:18;;;;;;;308.47;52.23;;;5.70;99.90;;;;;;5027889;28;20199;-86
2021/12/17 07:56:45;;;;;;;284.33;52.97;;;5.70;99.90;;;;;;5017086;28;20175;-85
2021/12/17 07:59:15;;;;;;;201.40;47.23;;;5.80;99.90;;;;;;5018135;28;20167;-90
2021/12/17 08:01:51;;;;;;;284.83;50.37;;;5.90;99.90;;;;;;5017024;28;20206;-87
2021/12/17 08:05:12;;;;;;;307.37;53.20;;;5.90;99.90;;;;;;5020575;28;20171;-91
2021/12/17 08:07:37;;;;;;;292.30;54.37;;;6.00;99.90;;;;;;5011034;28;20155;-85
2021/12/17 08:10:05;;;;;;;324.70;56.07;;;6.00;99.90;;;;;;5017811;28;20217;-85
2021/12/17 08:12:30;;;;;;;336.13;57.10;;;6.10;99.90;;;;;;5015719;28;20282;-84
2021/12/17 08:15:05;;;;;;;414.40;62.03;;;6.10;99.90;;;;;;5010353;28;20218;-82
2021/12/17 08:18:14;;;;;;;261.67;52.10;;;6.00;99.90;;;;;;5034098;28;20170;-84
2021/12/17 08:26:04;;;;;;;464.90;61.77;;;6.00;99.90;;;;;;4999307;28;20616;-90
2021/12/17 08:29:12;;;;;;;341.57;56.57;;;6.20;99.90;;;;;;5001136;28;20206;-87
2021/12/17 08:31:38;;;;;;;399.00;56.43;;;6.30;99.90;;;;;;5017624;28;20622;-91
2021/12/17 08:34:12;;;;;;;378.17;54.73;;;6.40;99.90;;;;;;4999965;28;20167;-90
2021/12/17 08:36:39;;;;;;;419.30;57.90;;;6.30;99.90;;;;;;5000038;28;20206;-88
2021/12/17 08:39:25;;;;;;;216.63;40.00;;;6.40;99.90;;;;;;5006693;28;20222;-89
2021/12/17 08:41:55;;;;;;;464.27;59.47;;;6.30;99.90;;;;;;4998176;28;20173;-85
2021/12/17 08:44:22;;;;;;;611.93;75.60;;;6.30;99.90;;;;;;4980385;28;20263;-88
2021/12/17 08:46:48;;;;;;;465.23;59.80;;;6.30;99.90;;;;;;4997727;28;20244;-85
2021/12/17 08:49:15;;;;;;;440.20;53.23;;;6.40;99.90;;;;;;5026481;28;20238;-91
2021/12/17 08:51:46;;;;;;;364.10;51.37;;;6.40;99.90;;;;;;5033356;28;20175;-90
2021/12/17 08:54:43;;;;;;;280.53;47.13;;;6.50;99.90;;;;;;5013948;28;20203;-86
2021/12/17 09:00:31;;;;;;;314.37;47.67;;;6.60;99.90;;;;;;4994876;28;20679;-84
2021/12/17 09:02:59;;;;;;;264.17;45.63;;;6.60;99.90;;;;;;4975796;28;20176;-84
2021/12/17 09:05:26;;;;;;;365.63;52.90;;;6.60;99.90;;;;;;4979870;28;20175;-84
2021/12/17 09:07:58;;;;;;;244.50;46.23;;;6.60;99.90;;;;;;4978071;28;20190;-85
2021/12/17 09:10:25;;;;;;;263.07;45.60;;;6.60;99.90;;;;;;4978894;28;20207;-86
2021/12/17 09:12:50;;;;;;;266.37;46.47;;;6.60;99.90;;;;;;4992221;28;20195;-89
2021/12/17 09:15:19;;;;;;;239.40;45.63;;;6.50;99.90;;;;;;5012201;28;20184;-85
2021/12/17 09:17:53;;;;;;;296.27;50.70;;;6.50;99.90;;;;;;4994306;28;20179;-84
2021/12/17 09:20:22;;;;;;;249.77;47.43;;;6.50;99.90;;;;;;4994171;28;20210;-85
2021/12/17 09:22:52;;;;;;;264.33;50.37;;;6.50;99.90;;;;;;4995282;28;20176;-84
2021/12/17 09:25:20;;;;;;;272.07;46.27;;;6.60;99.90;;;;;;4981067;28;20186;-86
2021/12/17 09:27:58;;;;;;;191.40;44.93;;;6.50;99.90;;;;;;4980623;28;20199;-85
2021/12/17 09:30:24;;;;;;;219.40;48.83;;;6.50;99.90;;;;;;4963185;28;20227;-86
2021/12/17 09:32:51;;;;;;;194.00;48.40;;;6.60;99.90;;;;;;4979119;28;20175;-84
2021/12/17 09:35:16;;;;;;;177.90;45.17;;;6.60;99.90;;;;;;4982465;28;20202;-87
2021/12/17 09:37:42;;;;;;;228.57;48.97;;;6.60;99.90;;;;;;5018570;28;20609;-85
2021/12/17 09:40:14;;;;;;;206.53;50.50;;;6.70;99.90;;;;;;4995531;28;20176;-86
2021/12/17 09:42:42;;;;;;;195.60;49.80;;;6.70;99.90;;;;;;4986688;28;20183;-85
2021/12/17 09:45:09;;;;;;;223.07;52.83;;;6.70;99.90;;;;;;5015967;28;20190;-83
2021/12/17 09:47:35;;;;;;;206.83;52.07;;;6.60;99.90;;;;;;5033424;28;20143;-87
2021/12/17 09:50:03;;;;;;;196.50;51.10;;;6.70;99.90;;;;;;5018576;28;20261;-87
2021/12/17 09:52:29;;;;;;;180.97;50.80;;;6.70;99.90;;;;;;5042935;28;20740;-85
2021/12/17 09:54:57;;;;;;;150.17;49.60;;;6.80;99.90;;;;;;5011310;28;20195;-87
2021/12/17 09:57:25;;;;;;;160.30;52.27;;;6.70;99.90;;;;;;5013822;28;20163;-85
2021/12/17 09:59:52;;;;;;;158.03;49.87;;;6.70;99.90;;;;;;5024127;28;20171;-86
2021/12/17 10:02:25;;;;;;;168.63;52.63;;;6.70;99.90;;;;;;5012430;28;20603;-85
2021/12/17 10:05:05;;;;;;;165.37;49.87;;;6.70;99.90;;;;;;5015228;28;20186;-86
2021/12/17 10:07:57;;;;;;;177.87;51.50;;;6.80;99.90;;;;;;5013114;28;20187;-86
2021/12/17 10:10:47;;;;;;;179.27;53.30;;;6.80;99.90;;;;;;4997716;28;20230;-87
2021/12/17 10:13:18;;;;;;;174.53;52.30;;;6.90;99.90;;;;;;4997332;28;20221;-85
2021/12/17 10:15:47;;;;;;;197.53;55.70;;;6.90;99.90;;;;;;4996755;28;20203;-84
2021/12/17 10:18:14;;;;;;;186.13;52.00;;;7.00;99.90;;;;;;4997447;28;20172;-83
2021/12/17 10:20:56;;;;;;;150.20;50.00;;;7.00;99.90;;;;;;4998506;28;20247;-87
2021/12/17 10:23:23;;;;;;;143.73;47.63;;;7.00;99.90;;;;;;5003566;28;20206;-87
2021/12/17 10:25:49;;;;;;;162.10;51.53;;;7.00;99.90;;;;;;5026354;28;20352;-86
2021/12/17 10:28:16;;;;;;;178.40;52.90;;;7.10;99.90;;;;;;5015390;28;20167;-85
2021/12/17 10:30:48;;;;;;;161.23;50.53;;;7.20;99.90;;;;;;5016997;28;20223;-85
2021/12/17 10:33:24;;;;;;;155.13;51.47;;;7.20;99.90;;;;;;5016833;28;20233;-84
2021/12/17 10:35:53;;;;;;;162.77;50.33;;;7.20;99.90;;;;;;5011302;28;20185;-86
2021/12/17 10:38:25;;;;;;;152.17;53.03;;;7.20;99.90;;;;;;5011276;28;20162;-86
2021/12/17 10:41:12;;;;;;;156.43;50.43;;;7.30;99.90;;;;;;4997391;28;20260;-85
2021/12/17 10:43:49;;;;;;;139.77;48.03;;;7.40;99.90;;;;;;5014895;28;20162;-89
2021/12/17 10:46:32;;;;;;;152.37;47.90;;;7.30;99.90;;;;;;5018866;28;20167;-86
2021/12/17 10:55:23;;;;;;;164.20;52.00;;;7.30;99.90;;;;;;5010821;28;20302;-86
2021/12/17 10:57:49;;;;;;;160.63;51.37;;;7.40;99.90;;;;;;5024557;28;20183;-86
2021/12/17 11:00:23;;;;;;;158.73;52.67;;;7.40;99.90;;;;;;5025796;28;20183;-87
2021/12/17 11:02:53;;;;;;;164.33;52.87;;;7.40;99.90;;;;;;5023252;28;20206;-86
2021/12/17 11:05:22;;;;;;;157.23;50.23;;;7.50;99.90;;;;;;5019564;28;20158;-84
2021/12/17 11:07:49;;;;;;;171.97;52.97;;;7.40;99.90;;;;;;5017107;28;20178;-86
2021/12/17 11:11:07;;;;;;;159.73;51.47;;;7.60;99.90;;;;;;5031615;28;20226;-87
2021/12/17 11:14:09;;;;;;;154.77;53.13;;;7.50;99.90;;;;;;5007515;28;20237;-89
2021/12/17 11:16:37;;;;;;;157.27;51.10;;;7.60;99.90;;;;;;5003461;28;20190;-91
2021/12/17 11:19:04;;;;;;;151.80;50.87;;;7.60;99.90;;;;;;5017948;28;20276;-88
2021/12/17 11:21:32;;;;;;;155.73;53.20;;;7.60;99.90;;;;;;5028523;28;20163;-86
2021/12/17 11:24:00;;;;;;;163.13;54.10;;;7.60;99.90;;;;;;5034852;28;20242;-88
2021/12/17 11:26:37;;;;;;;161.90;51.63;;;7.70;99.90;;;;;;5019405;28;20238;-90
2021/12/17 11:29:12;;;;;;;168.37;52.90;;;7.80;99.90;;;;;;5034636;28;20183;-88
2021/12/17 11:31:49;;;;;;;164.53;50.23;;;7.70;99.90;;;;;;5017311;28;20225;-88
2021/12/17 11:35:10;;;;;;;181.63;53.47;;;7.70;99.90;;;;;;5007530;28;20178;-89
2021/12/17 11:37:41;;;;;;;187.40;49.93;;;7.70;99.90;;;;;;5008117;28;20667;-88
2021/12/17 11:40:12;;;;;;;186.87;47.77;;;7.90;99.90;;;;;;5019055;28;20667;-87
2021/12/17 11:42:55;;;;;;;182.13;50.67;;;7.70;99.90;;;;;;5008930;28;20171;-89
2021/12/17 11:45:23;;;;;;;161.13;47.00;;;7.80;99.90;;;;;;5007375;28;20191;-88
2021/12/17 11:47:51;;;;;;;167.73;43.63;;;7.80;99.90;;;;;;5011052;28;20179;-86
2021/12/17 11:50:19;;;;;;;169.90;47.33;;;7.90;99.90;;;;;;5006596;28;20210;-91
2021/12/17 11:52:49;;;;;;;166.57;46.33;;;7.90;99.90;;;;;;5005956;28;20179;-87
2021/12/17 11:55:20;;;;;;;159.60;48.27;;;7.90;99.90;;;;;;5004280;28;20234;-91
2021/12/17 11:57:58;;;;;;;168.57;49.03;;;7.90;99.90;;;;;;5014296;28;20181;-86
2021/12/17 12:00:31;;;;;;;151.63;45.63;;;8.00;99.90;;;;;;4992843;28;20190;-86
2021/12/17 12:03:23;;;;;;;131.97;44.80;;;8.00;99.90;;;;;;5000582;28;20201;-94
2021/12/17 12:05:56;;;;;;;154.47;46.17;;;8.00;99.90;;;;;;5016167;28;20173;-89
2021/12/17 12:08:48;;;;;;;136.70;44.77;;;8.00;99.90;;;;;;5015364;28;20171;-92
2021/12/17 12:11:18;;;;;;;152.83;45.30;;;8.00;99.90;;;;;;5015351;28;20237;-88
2021/12/17 12:13:48;;;;;;;144.80;45.87;;;8.00;99.90;;;;;;5020056;28;20167;-87
2021/12/17 12:16:21;;;;;;;136.83;43.53;;;8.10;99.90;;;;;;5033799;28;20187;-88
2021/12/17 12:18:54;;;;;;;117.53;42.50;;;8.10;99.90;;;;;;5032980;28;20194;-87
2021/12/17 12:21:31;;;;;;;133.70;42.87;;;8.00;99.90;;;;;;5017013;28;20162;-85
2021/12/17 12:27:30;;;;;;;134.07;42.73;;;8.10;99.90;;;;;;5004169;28;20650;-88
2021/12/17 12:30:00;;;;;;;121.83;41.30;;;8.00;99.90;;;;;;5021555;28;20266;-88
2021/12/17 12:32:30;;;;;;;125.10;43.00;;;8.00;99.90;;;;;;5003456;28;20632;-91
2021/12/17 12:35:08;;;;;;;127.17;44.47;;;8.00;99.90;;;;;;5000605;28;20175;-86
2021/12/17 12:37:42;;;;;;;118.83;42.03;;;8.00;99.90;;;;;;5033719;28;20186;-89
2021/12/17 12:40:16;;;;;;;109.90;40.90;;;8.00;99.90;;;;;;5033323;28;20194;-85
2021/12/17 12:42:48;;;;;;;116.47;40.67;;;8.20;99.90;;;;;;5016242;28;20190;-81
2021/12/17 12:45:24;;;;;;;119.90;42.90;;;8.10;99.90;;;;;;5013191;28;20170;-83
2021/12/17 12:47:55;;;;;;;121.90;42.53;;;8.10;99.90;;;;;;5029236;28;20238;-84
2021/12/17 12:54:25;;;;;;;108.63;38.07;;;8.10;99.90;;;;;;5007923;28;20571;-84
2021/12/17 12:56:52;;;;;;;111.63;38.27;;;8.10;99.90;;;;;;5018459;28;20234;-92
2021/12/17 12:59:25;;;;;;;117.30;42.60;;;8.20;99.90;;;;;;5004023;28;20185;-89
2021/12/17 13:01:50;;;;;;;122.37;41.67;;;8.10;99.90;;;;;;5005583;28;20203;-91
2021/12/17 13:04:16;;;;;;;117.10;43.97;;;8.10;99.90;;;;;;5025667;28;20190;-86
2021/12/17 13:06:48;;;;;;;127.60;42.77;;;8.20;99.90;;;;;;5030064;28;20179;-86
2021/12/17 13:09:13;;;;;;;112.13;40.97;;;8.20;99.90;;;;;;5032308;28;20241;-86
2021/12/17 13:11:48;;;;;;;117.23;39.77;;;8.20;99.90;;;;;;5013192;28;20271;-84
2021/12/17 13:14:25;;;;;;;126.10;44.40;;;8.20;99.90;;;;;;5013145;28;20175;-88
2021/12/17 13:17:16;;;;;;;122.17;42.13;;;8.30;99.90;;;;;;5027429;28;20186;-87
2021/12/17 13:20:42;;;;;;;116.50;41.80;;;8.40;99.90;;;;;;5010026;28;20182;-92
2021/12/17 13:26:26;;;;;;;109.60;38.50;;;8.40;99.90;;;;;;5018478;28;20182;-87
2021/12/17 13:32:25;;;;;;;106.70;39.77;;;8.40;99.90;;;;;;5003430;28;20187;-94
2021/12/17 13:34:54;;;;;;;114.27;43.13;;;8.60;99.90;;;;;;5002809;28;20163;-90
2021/12/17 13:37:28;;;;;;;118.07;42.67;;;8.40;99.90;;;;;;5004097;28;20171;-88
2021/12/17 13:39:58;;;;;;;101.63;38.80;;;8.50;99.90;;;;;;5014858;28;20170;-87
2021/12/17 13:42:36;;;;;;;118.63;40.07;;;8.40;99.90;;;;;;5009189;28;20179;-88
2021/12/17 13:45:22;;;;;;;110.20;40.37;;;8.40;99.90;;;;;;5002236;28;20167;-89
2021/12/17 13:48:13;;;;;;;107.20;41.30;;;8.50;99.90;;;;;;5001857;28;20166;-91
2021/12/17 13:50:52;;;;;;;111.27;41.27;;;8.50;99.90;;;;;;5002269;28;20203;-93
2021/12/17 13:53:19;;;;;;;118.57;43.20;;;8.50;99.90;;;;;;5015644;28;20210;-90
2021/12/17 13:55:47;;;;;;;103.37;40.50;;;8.60;99.90;;;;;;5020271;28;20207;-88
2021/12/17 13:58:19;;;;;;;106.17;38.67;;;8.60;99.90;;;;;;5020888;28;20190;-85
2021/12/17 14:00:53;;;;;;;100.43;38.67;;;8.70;99.90;;;;;;5003863;28;20166;-90
2021/12/17 14:03:52;;;;;;;116.53;43.13;;;8.60;99.90;;;;;;5019072;28;20167;-84
2021/12/17 14:10:03;;;;;;;103.83;39.63;;;8.60;99.90;;;;;;5045799;23;20205;-89
2021/12/17 14:12:33;;;;;;;104.30;39.73;;;8.60;99.90;;;;;;5052426;28;20256;-89
2021/12/17 14:15:51;;;;;;;106.07;40.37;;;8.60;99.90;;;;;;5056303;28;20228;-96
2021/12/17 14:18:33;;;;;;;98.80;35.93;;;8.60;99.90;;;;;;5054008;28;20201;-95
2021/12/17 14:21:29;;;;;;;106.80;40.03;;;8.60;99.90;;;;;;5056447;28;20168;-92
2021/12/17 14:23:58;;;;;;;93.83;38.90;;;8.60;99.90;;;;;;5058705;28;20180;-93
2021/12/17 14:26:36;;;;;;;108.80;39.90;;;8.60;99.90;;;;;;5040587;28;20197;-84
2021/12/17 14:32:49;;;;;;;98.93;38.47;;;8.70;99.90;;;;;;5043563;28;20256;-86
2021/12/17 14:35:16;;;;;;;107.63;41.87;;;8.80;99.90;;;;;;5025915;28;20181;-89
2021/12/17 14:38:01;;;;;;;100.30;40.60;;;8.80;99.90;;;;;;5045021;28;20169;-92
2021/12/17 14:40:36;;;;;;;92.33;38.37;;;8.80;99.90;;;;;;5040515;28;20182;-90
2021/12/17 14:43:23;;;;;;;95.53;37.33;;;8.90;99.90;;;;;;5043984;28;20633;-85
2021/12/17 14:46:01;;;;;;;91.43;36.17;;;8.90;99.90;;;;;;5044574;28;20662;-87
2021/12/17 14:48:44;;;;;;;93.37;37.03;;;8.90;99.90;;;;;;5056192;28;20165;-87
2021/12/17 15:06:05;;;;;;;72.13;32.47;;;9.00;99.90;;;;;;5068828;28;20724;-92
2021/12/17 15:08:44;;;;;;;76.57;35.43;;;9.00;99.90;;;;;;5071261;28;20154;-85
2021/12/17 15:11:26;;;;;;;75.53;34.73;;;9.00;99.90;;;;;;5067033;28;20218;-89
2021/12/17 15:13:53;;;;;;;76.83;34.60;;;9.00;99.90;;;;;;5064049;28;20173;-90
2021/12/17 15:16:19;;;;;;;78.70;36.83;;;9.00;99.90;;;;;;5064616;28;20158;-88
2021/12/17 15:18:46;;;;;;;82.03;36.20;;;9.10;99.90;;;;;;5068936;28;20251;-88
2021/12/17 15:21:21;;;;;;;68.97;33.27;;;9.10;99.90;;;;;;5078856;28;20184;-89
2021/12/17 15:23:47;;;;;;;65.33;30.63;;;9.20;99.90;;;;;;5074809;28;20169;-88
2021/12/17 15:26:21;;;;;;;72.47;32.50;;;9.10;99.90;;;;;;5057515;28;20176;-89
2021/12/17 15:29:22;;;;;;;77.77;34.57;;;9.10;99.90;;;;;;5053309;28;20165;-85
2021/12/17 15:31:55;;;;;;;62.90;30.83;;;9.20;99.90;;;;;;5047355;28;20231;-88
2021/12/17 15:34:25;;;;;;;67.17;29.80;;;9.20;99.90;;;;;;5047013;28;20185;-84
2021/12/17 15:36:57;;;;;;;66.67;33.37;;;9.20;99.90;;;;;;5045744;28;20211;-88
2021/12/17 15:39:58;;;;;;;81.13;36.73;;;9.20;99.90;;;;;;5033209;28;20186;-93
2021/12/17 15:42:28;;;;;;;68.00;32.00;;;9.30;99.90;;;;;;5037684;28;20414;-93
2021/12/17 15:44:54;;;;;;;67.53;32.47;;;9.30;99.90;;;;;;5041099;28;20193;-88
2021/12/17 15:47:20;;;;;;;69.07;32.87;;;9.40;99.90;;;;;;5057734;28;20162;-91
2021/12/17 15:50:38;;;;;;;69.70;33.23;;;9.30;99.90;;;;;;5050550;28;20197;-92
2021/12/17 15:53:22;;;;;;;56.93;29.67;;;9.40;99.90;;;;;;5055412;28;20173;-90
2021/12/17 15:55:48;;;;;;;63.07;31.37;;;9.40;99.90;;;;;;5039231;28;20260;-92
2021/12/17 15:58:20;;;;;;;65.60;32.33;;;9.30;99.90;;;;;;5058387;28;20204;-92
2021/12/17 16:00:47;;;;;;;65.30;32.07;;;9.40;99.90;;;;;;5057851;28;20177;-92
2021/12/17 16:03:21;;;;;;;70.07;32.97;;;9.30;99.90;;;;;;5058314;28;20174;-94
2021/12/17 16:05:48;;;;;;;68.10;32.43;;;9.40;99.90;;;;;;5040069;28;20251;-89
2021/12/17 16:08:15;;;;;;;61.67;30.40;;;9.40;99.90;;;;;;5061821;28;20188;-88
2021/12/17 16:21:38;;;;;;;64.63;30.40;;;9.40;99.90;;;;;;5050878;28;20224;-86
2021/12/17 16:24:04;;;;;;;63.93;32.57;;;9.40;99.90;;;;;;5069047;28;20186;-87
2021/12/17 16:26:45;;;;;;;55.77;27.73;;;9.40;99.90;;;;;;5072801;28;20277;-85
2021/12/17 16:29:18;;;;;;;58.60;29.87;;;9.40;99.90;;;;;;5068667;28;20196;-85
2021/12/17 16:31:48;;;;;;;60.53;31.97;;;9.40;99.90;;;;;;5059307;28;20291;-86
2021/12/17 16:34:17;;;;;;;61.13;31.97;;;9.40;99.90;;;;;;5053933;28;20174;-89
2021/12/17 16:36:44;;;;;;;53.40;27.47;;;9.50;99.90;;;;;;5055409;28;20173;-91
2021/12/17 16:39:13;;;;;;;54.90;29.30;;;9.50;99.90;;;;;;5063084;28;20174;-91
2021/12/17 16:41:39;;;;;;;54.33;27.27;;;9.40;99.90;;;;;;5048043;28;20625;-89
2021/12/17 16:44:09;;;;;;;57.17;28.00;;;9.50;99.90;;;;;;5061136;28;20165;-88
2021/12/17 16:49:11;;;;;;;50.43;26.37;;;9.50;99.90;;;;;;5072786;28;20192;-89
2021/12/17 16:51:37;;;;;;;56.73;28.97;;;9.40;99.90;;;;;;5053736;28;20201;-91